Terminal Aerodrome Forecast
Issued by NWS Tulsa, OK

Home | Current Version | Previous Version | Text Only | Print | Product List | Glossary Off
Versions: 1 2 3 4 5 6 7 8 9 10 11 12 13 14 15 16 17 18 19

856
FTUS44 KTSA 240827 AAA
TAFFSM
TAF AMD
KFSM 240827Z 2408/2506 04005KT P6SM -RA VCTS SCT009 OVC015CB
      TEMPO 2408/2410 2SM -RA BR BKN007
     FM241000 06007KT 3SM -RA BKN003
     FM241300 10005KT 5SM BR BKN004
     FM241600 11005KT 5SM -TSRA BR BKN005CB
      TEMPO 2417/2421 VRB15G25KT 2SM -TSRA BR BKN015CB
     FM242300 26012KT P6SM OVC015
     FM250400 29011KT P6SM SKC=

USA.gov is the U.S. government's official web portal to all federal, state and local government web resources and services.